West Haven, CT (06516)

3:55 AM EST on February 21, 2018 (GMT -0500)
Third Avenue Park | | Change Station
Active Advisory: Dense Fog Advisory

Elev 13 ft 41.27 °N, 72.94 °W | Updated 4 minutes ago

Fog
Fog
45.2 °F
Feels Like 45 °F
N
0.0
Wind Variable Wind from SSW
Gusts 0.0 mph

Today
High -- | Low -- °F
--% Chance of Precip.
Yesterday
High -- | Low -- °F
Precip. -- in
Pressure 30.30 in
Visibility 0.2 miles
Clouds
Windchill 45 °F
Dew Point 44 °F
Humidity 94%
Rainfall 0.00 in
Snow Depth Not available.
6:38 AM 5:33 PM
Waxing Crescent, 29% visible
METAR KHVN 210853Z AUTO 00000KT M1/4SM R02/0800FT FG VV002 08/08 A3030 RMK AO2 SLP260 T00830078 56011
Pressure 30.30 in
Visibility 0.2 miles
Clouds
Windchill 45 °F
Dew Point 44 °F
Humidity 94%
Rainfall 0.00 in
Snow Depth Not available.
6:38 AM 5:33 PM
Waxing Crescent, 29% visible
METAR KHVN 210853Z AUTO 00000KT M1/4SM R02/0800FT FG VV002 08/08 A3030 RMK AO2 SLP260 T00830078 56011

Get Your Daily Forecast Email!

Thanks for signing up!

Be on the lookout for a verification email in your inbox.

You'll start receiving severe weather alerts in your inbox..

×

10-Day Weather Forecast

Almanac

Astronomy

Feb. 21, 2018 Rise Set
Actual Time
Civil Twilight
Nautical Twilight
Astronomical Twilight
Moon
Length of Visible Light
Length of Day
Tomorrow will be .
, % of the Moon is Illuminated

Today's Extremes

State Highs State Lows

Community

WunderPhotos

Category 6

Welcome to Category 6. This is the collective home for Weather Underground's featured writeups by Dr. Jeff Masters (right), Bob Henson (left), Chris Burt, and other regular contributors.

Nearby

Air Quality

  Air Quality AQ Index Pollutant
Not available.

Snow Depth

Station Depth Elevation

Earthquake Activity

City Distance Mag. Time & Date
Minimum magnitude displayed is 2.5.

Coastal Water Temperatures

Place Temperature

Stations

Nearby Weather Stations

Station Location Temp. Windchill Dew Point Humidity Wind Precip. Elev Updated Type
                   

Watches & Warnings

Dense Fog Advisory
Issued: 3:11 AM EST Feb. 21, 2018 – National Weather Service

... Dense fog advisory remains in effect until 10 am EST this
morning...

* visibilities... one quarter mile or less at times.

* Timing... through 10 am this morning.

* Impacts... limited visibilities will make travel very difficult.

Precautionary/preparedness actions...

A dense fog advisory means visibilities will frequently be
reduced to one quarter mile or less. If driving... slow down... use
your low beam headlights... and leave plenty of distance ahead of
you in case a sudden stop is needed.

A dense fog advisory means visibilities will frequently be
reduced to one quarter mile or less. If driving, slow down, use
your fog lamps or low beam headlights, and leave plenty of
distance ahead of you in case a sudden stop is needed.